This is the latest recevied weather packets stored in our database for station/object OK2ZA-6. If no packets are shown the sender has not sent any weather packets the latest 1 day(s).
| Time | Temp. | Humidity | Pressure | Rain* | Wind** | Luminosity | Snow |
|---|---|---|---|---|---|---|---|
| 1836274377 | 16.11° C | 82% | 1024.5 hPa | 0 mm | 0.45 m/s, 92° | - | - |
| 1836274228 | 15.56° C | 82% | 1024.5 hPa | 0 mm | 0.89 m/s, 89° | - | - |
| 1778014803 | 15.56° C | 65% | 1005.3 hPa | 0 mm | 3.13 m/s, 106° | - | - |
| 1778014204 | 15.56° C | 63% | 1005.2 hPa | 0 mm | 3.58 m/s, 105° | - | - |
| 1778013603 | 15.56° C | 62% | 1005.2 hPa | 0 mm | 4.02 m/s, 96° | - | - |
| 1778013003 | 15.56° C | 62% | 1005.1 hPa | 0 mm | 3.58 m/s, 97° | - | - |
| 1778012403 | 16.11° C | 61% | 1005.1 hPa | 0 mm | 4.47 m/s, 98° | - | - |
| 1778011803 | 16.11° C | 60% | 1005.3 hPa | 0 mm | 4.02 m/s, 97° | - | - |
| 1778011203 | 16.11° C | 60% | 1005.2 hPa | 0 mm | 4.02 m/s, 101° | - | - |
| 1778010603 | 16.11° C | 60% | 1005.2 hPa | 0 mm | 3.58 m/s, 97° | - | - |
| 1778010004 | 16.67° C | 60% | 1005.1 hPa | 0 mm | 3.58 m/s, 101° | - | - |
| 1778009403 | 16.67° C | 59% | 1005 hPa | 0 mm | 4.02 m/s, 101° | - | - |
| 1778008804 | 17.22° C | 58% | 1005 hPa | 0 mm | 4.02 m/s, 104° | - | - |
| 1778008204 | 17.22° C | 58% | 1005.1 hPa | 0 mm | 4.02 m/s, 105° | - | - |
| 1778007604 | 17.78° C | 57% | 1005.1 hPa | 0 mm | 4.47 m/s, 107° | - | - |
| 1778007004 | 17.78° C | 56% | 1005.1 hPa | 0 mm | 4.02 m/s, 110° | - | - |
| 1778006404 | 17.78° C | 55% | 1005.1 hPa | 0 mm | 4.47 m/s, 112° | - | - |
| 1778005804 | 18.33° C | 55% | 1005.2 hPa | 0 mm | 4.92 m/s, 108° | - | - |
| 1778005203 | 18.33° C | 54% | 1004.9 hPa | 0 mm | 4.47 m/s, 109° | - | - |
| 1778004604 | 18.89° C | 53% | 1005 hPa | 0 mm | 4.02 m/s, 112° | - | - |
| 1778004004 | 19.44° C | 52% | 1005 hPa | 0 mm | 5.36 m/s, 112° | - | - |
| 1778003404 | 20° C | 50% | 1005 hPa | 0 mm | 4.47 m/s, 115° | - | - |
| 1778002804 | 20.56° C | 48% | 1004.9 hPa | 0 mm | 5.81 m/s, 124° | - | - |
| 1778002204 | 21.11° C | 46% | 1004.8 hPa | 0 mm | 5.36 m/s, 137° | - | - |
| 1778001603 | 21.11° C | 45% | 1004.8 hPa | 0 mm | 5.81 m/s, 135° | - | - |
* Rain latest hour (hover to see other rain measurements)
** Current wind speed in m/s (hover to see current wind gust speed)